Time;durP1;ratioP1;P1;durP2;ratioP2;P2;SDS_P1;SDS_P2;PMS_P1;PMS_P2;Temp;Humidity;BMP_temperature;BMP_pressure;BME280_temperature;BME280_humidity;BME280_pressure;Samples;Min_cycle;Max_cycle;Signal;HPM_P1;HPM_P2
2023/03/07 00:00:39;;;;;;;9.32;5.72;;;4.50;99.90;;;;;;5053480;28;20171;-43
2023/03/07 00:03:05;;;;;;;8.82;5.85;;;4.50;99.90;;;;;;5053851;28;20174;-43
2023/03/07 00:05:31;;;;;;;8.90;4.93;;;4.50;99.90;;;;;;5053297;28;20218;-50
2023/03/07 00:07:57;;;;;;;9.25;4.97;;;4.50;99.90;;;;;;5053429;28;20638;-42
2023/03/07 00:10:23;;;;;;;7.00;4.63;;;4.50;99.90;;;;;;5053510;28;20268;-43
2023/03/07 00:12:49;;;;;;;6.85;4.35;;;4.40;99.90;;;;;;5053237;28;20170;-42
2023/03/07 00:15:16;;;;;;;6.28;3.97;;;4.40;99.90;;;;;;5053548;28;20182;-43
2023/03/07 00:17:41;;;;;;;9.93;4.47;;;4.50;99.90;;;;;;5053261;28;20188;-43
2023/03/07 00:20:15;;;;;;;8.25;4.88;;;4.50;99.90;;;;;;5053204;28;20257;-45
2023/03/07 00:22:41;;;;;;;9.02;5.70;;;4.50;99.90;;;;;;5053142;28;20159;-44
2023/03/07 00:25:08;;;;;;;8.48;5.28;;;4.40;99.90;;;;;;5053101;28;20166;-45
2023/03/07 00:27:34;;;;;;;5.90;4.40;;;4.50;99.90;;;;;;5053052;28;20756;-45
2023/03/07 00:30:00;;;;;;;10.77;5.35;;;4.40;99.90;;;;;;5052993;28;20301;-42
2023/03/07 00:32:26;;;;;;;7.97;5.28;;;4.40;99.90;;;;;;5053194;28;20175;-45
2023/03/07 00:34:53;;;;;;;5.72;4.57;;;4.40;99.90;;;;;;5053288;28;20630;-45
2023/03/07 00:37:18;;;;;;;9.18;5.53;;;4.50;99.90;;;;;;5052832;28;20171;-43
2023/03/07 00:39:44;;;;;;;10.48;4.45;;;4.50;99.90;;;;;;5052367;28;20173;-43
2023/03/07 00:42:09;;;;;;;6.00;4.68;;;4.50;99.90;;;;;;5052868;28;20179;-43
2023/03/07 00:44:35;;;;;;;8.52;5.18;;;4.40;99.90;;;;;;5052703;28;20178;-44
2023/03/07 00:47:01;;;;;;;9.88;6.53;;;4.50;99.90;;;;;;5052725;28;20702;-44
2023/03/07 00:49:27;;;;;;;5.57;4.45;;;4.40;99.90;;;;;;5052797;28;20170;-48
2023/03/07 00:51:52;;;;;;;6.60;4.10;;;4.40;99.90;;;;;;5052915;28;20171;-46
2023/03/07 00:54:18;;;;;;;6.00;3.92;;;4.50;99.90;;;;;;5052499;28;20174;-49
2023/03/07 00:56:44;;;;;;;8.15;5.35;;;4.40;99.90;;;;;;5052531;28;20167;-43
2023/03/07 00:59:10;;;;;;;6.10;4.15;;;4.50;99.90;;;;;;5052440;28;20167;-44
2023/03/07 01:01:35;;;;;;;7.47;5.18;;;4.50;99.90;;;;;;5052453;28;20257;-48
2023/03/07 01:04:01;;;;;;;6.93;4.38;;;4.40;99.90;;;;;;5052374;28;20167;-50
2023/03/07 01:06:29;;;;;;;7.43;5.28;;;4.50;99.90;;;;;;5051454;28;20669;-47
2023/03/07 01:08:57;;;;;;;4.43;3.00;;;4.50;99.90;;;;;;5052270;28;20174;-49
2023/03/07 01:11:23;;;;;;;5.63;3.80;;;4.40;99.90;;;;;;5052546;28;20588;-42
2023/03/07 01:13:49;;;;;;;5.03;3.42;;;4.50;99.90;;;;;;5052219;28;20170;-43
2023/03/07 01:16:19;;;;;;;8.02;4.13;;;4.40;99.90;;;;;;5052111;28;20175;-48
2023/03/07 01:18:48;;;;;;;12.82;7.35;;;4.50;99.90;;;;;;5051831;28;20181;-47
2023/03/07 01:21:23;;;;;;;10.00;5.60;;;4.60;99.90;;;;;;5051763;28;20740;-49
2023/03/07 01:23:49;;;;;;;7.45;4.68;;;4.60;99.90;;;;;;5051527;28;20244;-49
2023/03/07 01:26:21;;;;;;;8.18;4.88;;;4.50;99.90;;;;;;5051617;28;20198;-47
2023/03/07 01:28:47;;;;;;;5.88;3.08;;;4.60;99.90;;;;;;5050155;28;20532;-47
2023/03/07 01:31:12;;;;;;;10.45;7.40;;;4.50;99.90;;;;;;5051351;28;20205;-43
2023/03/07 01:33:39;;;;;;;8.63;6.20;;;4.60;99.90;;;;;;5051335;28;20224;-46
2023/03/07 01:36:17;;;;;;;5.45;3.83;;;4.50;99.90;;;;;;5051361;28;20166;-49
2023/03/07 01:38:43;;;;;;;6.63;4.70;;;4.60;99.90;;;;;;5051686;28;20166;-45
2023/03/07 01:41:08;;;;;;;7.75;5.13;;;4.60;99.90;;;;;;5050931;28;20242;-44
2023/03/07 01:43:34;;;;;;;6.38;4.50;;;4.50;99.90;;;;;;5051298;28;20212;-43
2023/03/07 01:46:42;;;;;;;6.38;4.30;;;4.60;99.90;;;;;;5051499;28;20171;-43
2023/03/07 01:49:22;;;;;;;3.83;3.38;;;4.60;99.90;;;;;;5050569;28;20526;-45
2023/03/07 01:52:06;;;;;;;5.18;4.35;;;4.60;99.90;;;;;;5051074;28;20182;-42
2023/03/07 01:54:36;;;;;;;6.38;3.58;;;4.60;99.90;;;;;;5051427;28;20250;-42
2023/03/07 01:57:03;;;;;;;4.63;3.13;;;4.50;99.90;;;;;;5051135;28;20190;-45
2023/03/07 01:59:32;;;;;;;5.43;3.78;;;4.60;99.90;;;;;;5051354;28;20261;-45
2023/03/07 02:02:04;;;;;;;6.40;4.07;;;4.60;99.90;;;;;;5051095;28;20174;-45
2023/03/07 02:04:40;;;;;;;6.55;4.80;;;4.60;99.90;;;;;;5051052;28;20163;-42
2023/03/07 02:07:08;;;;;;;7.32;4.82;;;4.60;99.90;;;;;;5050784;28;20214;-44
2023/03/07 02:09:35;;;;;;;8.23;4.55;;;4.60;99.90;;;;;;5050772;28;20170;-42
2023/03/07 02:12:01;;;;;;;4.72;3.35;;;4.70;99.90;;;;;;5050970;28;20202;-43
2023/03/07 02:14:27;;;;;;;6.78;5.20;;;4.70;99.90;;;;;;5050856;28;20244;-42
2023/03/07 02:16:53;;;;;;;5.13;3.95;;;4.60;99.90;;;;;;5051306;28;20302;-42
2023/03/07 02:19:42;;;;;;;7.93;5.07;;;4.60;99.90;;;;;;5054935;28;20171;-42
2023/03/07 02:22:16;;;;;;;7.45;4.93;;;4.50;99.90;;;;;;5054925;28;20171;-42
2023/03/07 02:24:58;;;;;;;9.68;5.10;;;4.60;99.90;;;;;;5055046;28;20173;-42
2023/03/07 02:27:25;;;;;;;6.55;4.85;;;4.70;99.90;;;;;;5055187;28;20167;-42
2023/03/07 02:29:51;;;;;;;10.20;4.25;;;4.80;99.90;;;;;;5054995;28;20205;-42
2023/03/07 02:32:16;;;;;;;9.50;6.00;;;4.60;99.90;;;;;;5054612;28;20647;-42
2023/03/07 02:34:42;;;;;;;7.20;4.93;;;4.60;99.90;;;;;;5054596;28;20285;-42
2023/03/07 02:37:21;;;;;;;5.40;4.18;;;4.60;99.90;;;;;;5054654;28;20525;-42
2023/03/07 02:39:47;;;;;;;7.07;4.97;;;4.60;99.90;;;;;;5054613;28;20189;-42
2023/03/07 02:42:24;;;;;;;7.72;4.03;;;4.70;99.90;;;;;;5054432;28;20780;-42
2023/03/07 02:44:58;;;;;;;6.88;4.60;;;4.60;99.90;;;;;;5054786;28;20603;-42
2023/03/07 02:47:25;;;;;;;5.95;4.57;;;4.70;99.90;;;;;;5054930;28;20256;-42
2023/03/07 02:49:50;;;;;;;9.27;5.00;;;4.70;99.90;;;;;;5054545;28;20194;-42
2023/03/07 02:52:16;;;;;;;9.57;5.28;;;4.80;99.90;;;;;;5054122;28;20316;-42
2023/03/07 02:54:41;;;;;;;7.60;4.78;;;4.80;99.90;;;;;;5054487;28;20167;-42
2023/03/07 02:57:07;;;;;;;3.58;2.72;;;4.90;99.90;;;;;;5054287;28;20182;-42
2023/03/07 02:59:32;;;;;;;5.45;4.35;;;4.80;99.90;;;;;;5053922;28;20174;-42
2023/03/07 03:01:58;;;;;;;4.63;3.58;;;4.80;99.90;;;;;;5054323;28;20173;-42
2023/03/07 03:04:23;;;;;;;6.10;4.95;;;4.80;99.90;;;;;;5054469;28;20159;-42
2023/03/07 03:06:49;;;;;;;5.60;4.55;;;4.80;99.90;;;;;;5054038;28;20230;-42
2023/03/07 03:09:15;;;;;;;5.20;3.67;;;4.90;99.90;;;;;;5053844;28;20178;-42
2023/03/07 03:11:41;;;;;;;4.85;3.53;;;4.80;99.90;;;;;;5054094;28;20260;-43
2023/03/07 03:14:06;;;;;;;4.72;3.60;;;4.80;99.90;;;;;;5054008;28;20634;-42
2023/03/07 03:16:32;;;;;;;6.78;5.03;;;4.70;99.90;;;;;;5054016;28;20174;-42
2023/03/07 03:18:59;;;;;;;6.93;4.20;;;4.80;99.90;;;;;;5054173;28;20254;-42
2023/03/07 03:21:24;;;;;;;4.53;3.42;;;4.80;99.90;;;;;;5053900;28;20621;-42
2023/03/07 03:23:50;;;;;;;6.18;3.78;;;4.80;99.90;;;;;;5054114;28;20198;-42
2023/03/07 03:26:15;;;;;;;5.18;3.60;;;4.80;99.90;;;;;;5053745;28;20263;-42
2023/03/07 03:28:41;;;;;;;4.13;3.40;;;4.70;99.90;;;;;;5052917;28;20181;-42
2023/03/07 03:31:10;;;;;;;5.15;4.05;;;4.70;99.90;;;;;;5053790;28;20206;-42
2023/03/07 03:33:36;;;;;;;4.10;3.45;;;4.60;99.90;;;;;;5053640;28;20155;-43
2023/03/07 03:36:11;;;;;;;5.97;4.32;;;4.60;99.90;;;;;;5053457;28;20174;-42
2023/03/07 03:38:38;;;;;;;6.25;4.65;;;4.70;99.90;;;;;;5053437;28;20174;-42
2023/03/07 03:41:09;;;;;;;6.32;4.28;;;4.60;99.90;;;;;;5053707;28;20174;-42
2023/03/07 03:43:35;;;;;;;7.63;4.57;;;4.50;99.90;;;;;;5053458;28;20744;-41
2023/03/07 03:46:00;;;;;;;7.13;4.40;;;4.60;99.90;;;;;;5053418;28;20202;-42
2023/03/07 03:48:27;;;;;;;6.38;4.30;;;4.60;99.90;;;;;;5053000;28;20573;-42
2023/03/07 03:51:04;;;;;;;5.60;4.85;;;4.50;99.90;;;;;;5053472;28;20217;-42
2023/03/07 03:53:31;;;;;;;7.13;5.13;;;4.70;99.90;;;;;;5053532;28;20171;-42
2023/03/07 03:56:01;;;;;;;7.68;4.90;;;4.60;99.90;;;;;;5053205;28;20269;-42
2023/03/07 03:58:27;;;;;;;4.80;3.15;;;4.70;99.90;;;;;;5053284;28;20179;-42
2023/03/07 04:00:52;;;;;;;7.78;5.07;;;4.50;99.90;;;;;;5052722;28;20653;-42
2023/03/07 04:03:18;;;;;;;6.22;3.63;;;4.60;99.90;;;;;;5052902;28;20626;-42
2023/03/07 04:05:44;;;;;;;9.57;5.80;;;4.60;99.90;;;;;;5052761;28;20218;-43
2023/03/07 04:08:09;;;;;;;7.10;4.97;;;4.60;99.90;;;;;;5053014;28;20181;-43
2023/03/07 04:10:35;;;;;;;6.88;4.60;;;4.60;99.90;;;;;;5053139;28;20214;-42
2023/03/07 04:13:00;;;;;;;7.50;5.60;;;4.60;99.90;;;;;;5051476;28;20189;-43
2023/03/07 04:15:26;;;;;;;7.85;4.75;;;4.50;99.90;;;;;;5052745;28;20175;-42
2023/03/07 04:17:51;;;;;;;5.15;3.95;;;4.60;99.90;;;;;;5052809;28;20205;-43
2023/03/07 04:20:17;;;;;;;7.53;4.95;;;4.50;99.90;;;;;;5052594;28;20685;-43
2023/03/07 04:22:43;;;;;;;8.05;5.32;;;4.50;99.90;;;;;;5052790;28;20159;-42
2023/03/07 04:25:09;;;;;;;11.20;6.53;;;4.70;99.90;;;;;;5052542;28;20293;-43
2023/03/07 04:27:35;;;;;;;12.23;6.50;;;4.60;99.90;;;;;;5052601;28;20167;-44
2023/03/07 04:30:00;;;;;;;10.05;7.00;;;4.70;99.90;;;;;;5052880;28;20193;-43
2023/03/07 04:32:26;;;;;;;7.70;5.20;;;4.60;99.90;;;;;;5052393;28;20175;-42
2023/03/07 04:34:51;;;;;;;7.90;5.55;;;4.50;99.90;;;;;;5052872;28;20260;-43
2023/03/07 04:37:17;;;;;;;9.65;6.50;;;4.60;99.90;;;;;;5052383;28;20530;-42
2023/03/07 04:39:42;;;;;;;8.77;5.93;;;4.60;99.90;;;;;;5051662;28;20158;-42
2023/03/07 04:42:08;;;;;;;6.70;5.63;;;4.60;99.90;;;;;;5052097;28;20171;-42
2023/03/07 04:44:34;;;;;;;9.82;5.10;;;4.60;99.90;;;;;;5052480;28;20194;-42
2023/03/07 04:46:59;;;;;;;9.73;6.40;;;4.60;99.90;;;;;;5052287;28;20526;-42
2023/03/07 04:49:25;;;;;;;8.52;6.10;;;4.60;99.90;;;;;;5051877;28;20540;-42
2023/03/07 04:51:50;;;;;;;9.20;5.93;;;4.70;99.90;;;;;;5052347;28;20693;-42
2023/03/07 04:54:16;;;;;;;8.90;6.22;;;4.60;99.90;;;;;;5052139;28;20582;-43
2023/03/07 04:56:41;;;;;;;9.32;5.82;;;4.60;99.90;;;;;;5052045;28;20571;-47
2023/03/07 04:59:07;;;;;;;9.60;6.60;;;4.50;99.90;;;;;;5051887;28;20163;-50
2023/03/07 05:01:32;;;;;;;8.98;5.38;;;4.50;99.90;;;;;;5051929;28;20167;-50
2023/03/07 05:03:58;;;;;;;7.43;5.90;;;4.60;99.90;;;;;;5051864;28;20190;-51
2023/03/07 05:06:23;;;;;;;10.48;6.70;;;4.60;99.90;;;;;;5052044;28;20573;-49
2023/03/07 05:08:49;;;;;;;8.90;5.28;;;4.50;99.90;;;;;;5051955;28;20178;-50
2023/03/07 05:11:14;;;;;;;7.75;6.03;;;4.50;99.90;;;;;;5051419;28;20256;-42
2023/03/07 05:13:40;;;;;;;6.82;5.18;;;4.50;99.90;;;;;;5051745;28;20174;-51
2023/03/07 05:16:06;;;;;;;9.27;6.05;;;4.40;99.90;;;;;;5051586;28;20619;-49
2023/03/07 05:18:31;;;;;;;11.05;5.57;;;4.40;99.90;;;;;;5051665;28;20163;-50
2023/03/07 05:20:57;;;;;;;6.55;4.63;;;4.50;99.90;;;;;;5051628;28;20171;-50
2023/03/07 05:23:23;;;;;;;9.85;6.63;;;4.40;99.90;;;;;;5051937;28;20201;-50
2023/03/07 05:25:48;;;;;;;11.38;6.75;;;4.50;99.90;;;;;;5051646;28;20175;-51
2023/03/07 05:28:15;;;;;;;6.55;4.25;;;4.50;99.90;;;;;;5051156;28;20167;-52
2023/03/07 05:30:41;;;;;;;10.00;5.57;;;4.40;99.90;;;;;;5051191;28;20546;-51
2023/03/07 05:33:07;;;;;;;10.75;7.13;;;4.40;99.90;;;;;;5050244;28;20245;-43
2023/03/07 05:35:33;;;;;;;12.40;7.55;;;4.50;99.90;;;;;;5051338;28;20246;-43
2023/03/07 05:37:59;;;;;;;6.47;4.93;;;4.50;99.90;;;;;;5051354;28;20717;-43
2023/03/07 05:40:24;;;;;;;9.35;5.50;;;4.40;99.90;;;;;;5051102;28;20261;-43
2023/03/07 05:42:50;;;;;;;11.25;5.50;;;4.40;99.90;;;;;;5051769;28;20173;-45
2023/03/07 05:45:15;;;;;;;9.35;6.32;;;4.40;99.90;;;;;;5051281;28;20166;-43
2023/03/07 05:47:41;;;;;;;7.63;5.00;;;4.40;99.90;;;;;;5051012;28;20170;-48
2023/03/07 05:50:08;;;;;;;9.50;6.43;;;4.50;99.90;;;;;;5051074;28;20259;-46
2023/03/07 05:52:33;;;;;;;6.93;4.70;;;4.40;99.90;;;;;;5050877;28;20166;-49
2023/03/07 05:54:59;;;;;;;10.40;6.50;;;4.40;99.90;;;;;;5050959;28;20307;-43
2023/03/07 05:57:24;;;;;;;11.30;6.57;;;4.50;99.90;;;;;;5050714;28;20163;-46
2023/03/07 05:59:50;;;;;;;10.48;4.88;;;4.40;99.90;;;;;;5051261;28;20691;-50
2023/03/07 06:02:16;;;;;;;7.53;5.63;;;4.40;99.90;;;;;;5050737;28;20655;-47
2023/03/07 06:04:41;;;;;;;10.05;6.82;;;4.50;99.90;;;;;;5050795;28;20500;-50
2023/03/07 06:07:07;;;;;;;13.75;7.30;;;4.50;99.90;;;;;;5050585;28;20214;-44
2023/03/07 06:09:32;;;;;;;12.25;6.97;;;4.40;99.90;;;;;;5050851;28;20534;-51
2023/03/07 06:11:58;;;;;;;10.40;6.80;;;4.60;99.90;;;;;;5050849;28;20244;-51
2023/03/07 06:14:24;;;;;;;10.68;5.93;;;4.60;99.90;;;;;;5050695;28;20247;-49
2023/03/07 06:16:50;;;;;;;11.00;6.60;;;4.50;99.90;;;;;;5051266;28;20167;-51
2023/03/07 06:19:15;;;;;;;6.32;4.80;;;4.50;99.90;;;;;;5050702;28;20173;-48
2023/03/07 06:21:41;;;;;;;7.22;5.53;;;4.50;99.90;;;;;;5050849;28;20171;-50
2023/03/07 06:24:07;;;;;;;9.98;6.75;;;4.50;99.90;;;;;;5050464;28;20186;-50
2023/03/07 06:26:33;;;;;;;9.20;6.35;;;4.60;99.90;;;;;;5050841;28;20182;-50
2023/03/07 06:28:59;;;;;;;13.27;6.95;;;4.50;99.90;;;;;;5050767;28;20159;-45
2023/03/07 06:31:25;;;;;;;13.73;7.40;;;4.60;99.90;;;;;;5050901;28;20209;-42
2023/03/07 06:33:50;;;;;;;10.82;7.25;;;4.50;99.90;;;;;;5051204;28;20171;-43
2023/03/07 06:36:17;;;;;;;8.77;5.85;;;4.60;99.90;;;;;;5050711;28;20709;-43
2023/03/07 06:38:43;;;;;;;12.15;7.00;;;4.50;99.90;;;;;;5050830;28;21039;-43
2023/03/07 06:41:09;;;;;;;10.63;7.05;;;4.50;99.90;;;;;;5050487;28;20177;-50
2023/03/07 06:43:34;;;;;;;10.38;6.85;;;4.60;99.90;;;;;;5050841;28;20251;-44
2023/03/07 06:46:00;;;;;;;8.82;6.25;;;4.60;99.90;;;;;;5050575;28;20194;-43
2023/03/07 06:48:26;;;;;;;10.40;7.00;;;3.40;99.90;;;;;;5050426;28;20704;-51
2023/03/07 06:50:51;;;;;;;10.68;7.88;;;4.60;99.90;;;;;;5051061;28;20214;-49
2023/03/07 06:53:17;;;;;;;10.95;7.63;;;4.50;99.90;;;;;;5050290;28;20526;-50
2023/03/07 06:55:46;;;;;;;9.38;6.10;;;4.60;99.90;;;;;;5048575;28;20543;-48
2023/03/07 06:58:12;;;;;;;13.20;6.75;;;4.60;99.90;;;;;;5050426;28;20179;-43
2023/03/07 07:00:37;;;;;;;11.05;6.30;;;4.70;99.90;;;;;;5050425;28;20228;-42
2023/03/07 07:03:03;;;;;;;11.27;6.57;;;4.70;99.90;;;;;;5050410;28;20666;-49
2023/03/07 07:05:28;;;;;;;13.10;5.25;;;4.70;99.90;;;;;;5054101;28;20294;-48
2023/03/07 07:07:54;;;;;;;7.45;5.93;;;4.70;99.90;;;;;;5054260;28;20190;-51
2023/03/07 07:10:19;;;;;;;8.13;5.32;;;4.70;99.90;;;;;;5053891;28;20205;-50
2023/03/07 07:12:45;;;;;;;10.57;6.57;;;4.70;99.90;;;;;;5053863;28;20256;-43
2023/03/07 07:15:10;;;;;;;12.38;6.93;;;4.80;99.90;;;;;;5054007;28;20250;-50
2023/03/07 07:17:37;;;;;;;10.55;6.00;;;4.80;99.90;;;;;;5052502;28;20340;-43
2023/03/07 07:20:04;;;;;;;12.10;6.90;;;4.80;99.90;;;;;;5052160;28;20269;-49
2023/03/07 07:22:30;;;;;;;9.98;6.07;;;4.80;99.90;;;;;;5054081;28;20166;-43
2023/03/07 07:24:56;;;;;;;9.18;6.40;;;4.80;99.90;;;;;;5054112;28;20179;-42
2023/03/07 07:27:21;;;;;;;12.88;6.07;;;4.90;99.90;;;;;;5053957;28;20182;-43
2023/03/07 07:29:47;;;;;;;5.85;4.15;;;4.80;99.90;;;;;;5053816;28;20221;-46
2023/03/07 07:32:12;;;;;;;7.78;5.22;;;4.90;99.90;;;;;;5053041;28;20535;-42
2023/03/07 07:34:38;;;;;;;10.80;6.60;;;4.80;99.90;;;;;;5053715;28;20166;-45
2023/03/07 07:37:04;;;;;;;9.40;6.22;;;5.00;99.90;;;;;;5053633;28;20573;-50
2023/03/07 07:39:29;;;;;;;9.05;5.63;;;5.00;99.90;;;;;;5053502;28;20170;-50
2023/03/07 07:41:55;;;;;;;9.65;5.30;;;4.90;99.90;;;;;;5053438;28;20173;-47
2023/03/07 07:44:21;;;;;;;11.63;6.53;;;5.00;99.90;;;;;;5053725;28;20293;-48
2023/03/07 07:46:46;;;;;;;10.80;6.25;;;4.90;99.90;;;;;;5053310;28;20213;-43
2023/03/07 07:49:12;;;;;;;9.45;4.85;;;4.90;99.90;;;;;;5053384;28;20186;-43
2023/03/07 07:51:39;;;;;;;11.95;7.40;;;4.90;99.90;;;;;;5053207;28;20207;-43
2023/03/07 07:54:05;;;;;;;22.23;6.07;;;4.90;99.90;;;;;;5052298;28;20185;-43
2023/03/07 07:56:31;;;;;;;7.22;4.88;;;5.00;99.90;;;;;;5053360;28;20531;-46
2023/03/07 07:58:56;;;;;;;6.43;4.60;;;4.90;99.90;;;;;;5053118;28;20167;-43
2023/03/07 08:01:24;;;;;;;6.78;4.20;;;4.90;99.90;;;;;;5053371;28;20530;-43
2023/03/07 08:03:50;;;;;;;6.95;4.38;;;5.00;99.90;;;;;;5053207;28;20202;-43
2023/03/07 08:06:20;;;;;;;6.53;4.72;;;4.90;99.90;;;;;;5052719;28;20242;-45
2023/03/07 08:08:47;;;;;;;8.00;5.18;;;5.00;99.90;;;;;;5048491;28;20178;-43
2023/03/07 08:11:13;;;;;;;13.20;6.93;;;5.00;99.90;;;;;;5050780;28;20212;-43
2023/03/07 08:13:39;;;;;;;9.32;4.35;;;5.00;99.90;;;;;;5051086;28;20601;-49
2023/03/07 08:16:16;;;;;;;8.50;4.97;;;5.00;99.90;;;;;;5051248;28;20652;-43
2023/03/07 08:18:46;;;;;;;9.68;5.80;;;5.00;99.90;;;;;;5051366;28;20162;-42
2023/03/07 08:21:12;;;;;;;9.55;5.82;;;5.10;99.90;;;;;;5051097;28;20185;-43
2023/03/07 08:23:38;;;;;;;7.68;4.32;;;5.10;99.90;;;;;;5051067;28;20170;-43
2023/03/07 08:26:06;;;;;;;6.10;4.22;;;5.10;99.90;;;;;;5051052;28;20175;-44
2023/03/07 08:28:31;;;;;;;8.82;5.10;;;5.20;99.90;;;;;;5049785;28;20261;-44
2023/03/07 08:30:57;;;;;;;3.92;3.35;;;5.10;99.90;;;;;;5050600;28;20304;-49
2023/03/07 08:33:23;;;;;;;7.82;4.95;;;5.10;99.90;;;;;;5050857;28;20163;-46
2023/03/07 08:35:48;;;;;;;9.52;5.28;;;5.20;99.90;;;;;;5051316;28;20265;-47
2023/03/07 08:38:14;;;;;;;6.38;4.47;;;5.20;99.90;;;;;;5049686;28;20170;-40
2023/03/07 08:40:39;;;;;;;7.88;4.25;;;5.20;99.90;;;;;;5049630;28;20665;-50
2023/03/07 08:43:05;;;;;;;9.10;5.47;;;5.20;99.90;;;;;;5050564;28;20511;-47
2023/03/07 08:45:31;;;;;;;10.63;5.50;;;5.20;99.90;;;;;;5051023;28;20178;-46
2023/03/07 08:47:57;;;;;;;9.20;5.47;;;5.20;99.90;;;;;;5051010;28;20173;-52
2023/03/07 08:50:25;;;;;;;9.18;4.93;;;5.20;99.90;;;;;;5050262;28;20263;-45
2023/03/07 08:52:50;;;;;;;6.55;3.72;;;5.30;99.90;;;;;;5049025;28;20211;-50
2023/03/07 08:55:16;;;;;;;4.68;3.25;;;5.30;99.90;;;;;;5050267;28;20166;-50
2023/03/07 08:57:44;;;;;;;6.43;4.82;;;5.40;99.90;;;;;;5050173;28;20182;-47
2023/03/07 09:00:12;;;;;;;7.47;3.97;;;5.40;99.90;;;;;;5050331;28;20167;-49
2023/03/07 09:02:38;;;;;;;9.02;4.55;;;5.40;99.90;;;;;;5050338;28;20174;-51
2023/03/07 09:05:04;;;;;;;4.90;3.55;;;5.40;99.90;;;;;;5050136;28;20514;-57
2023/03/07 09:07:29;;;;;;;5.90;3.67;;;5.40;99.90;;;;;;5050030;28;20494;-53
2023/03/07 09:09:55;;;;;;;4.45;2.67;;;5.30;99.90;;;;;;5050148;28;20176;-54
2023/03/07 09:12:20;;;;;;;8.88;4.30;;;5.40;99.90;;;;;;5050671;28;20190;-49
2023/03/07 09:14:47;;;;;;;5.18;3.72;;;5.40;99.90;;;;;;5050092;28;20285;-54
2023/03/07 09:17:13;;;;;;;8.77;4.50;;;5.40;99.90;;;;;;5050038;28;20277;-52
2023/03/07 09:19:38;;;;;;;5.82;4.00;;;5.50;99.90;;;;;;5050224;28;20197;-49
2023/03/07 09:22:04;;;;;;;6.18;4.57;;;5.50;99.90;;;;;;5050100;28;20555;-47
2023/03/07 09:24:29;;;;;;;6.85;4.95;;;5.60;99.90;;;;;;5050090;28;20197;-51
2023/03/07 09:26:55;;;;;;;8.90;6.05;;;5.60;99.90;;;;;;5049351;28;20167;-45
2023/03/07 09:29:21;;;;;;;7.50;4.57;;;5.70;99.90;;;;;;5050070;28;20167;-44
2023/03/07 09:31:47;;;;;;;7.10;4.50;;;5.80;99.90;;;;;;5050130;28;20210;-44
2023/03/07 09:34:13;;;;;;;10.10;5.78;;;5.80;99.90;;;;;;5050350;28;20171;-45
2023/03/07 09:36:38;;;;;;;9.80;5.20;;;3.50;99.90;;;;;;5050392;28;20249;-45
2023/03/07 09:39:04;;;;;;;8.27;5.35;;;6.10;99.90;;;;;;5049381;28;20206;-44
2023/03/07 09:41:55;;;;;;;5.20;3.78;;;6.10;99.90;;;;;;5049782;28;20541;-43
2023/03/07 09:44:53;;;;;;;5.30;3.85;;;6.00;99.90;;;;;;5049890;28;20642;-43
2023/03/07 09:47:49;;;;;;;7.88;4.22;;;6.10;99.90;;;;;;5050137;28;20175;-44
2023/03/07 09:50:46;;;;;;;10.32;5.07;;;6.10;99.90;;;;;;5049614;28;20561;-43
2023/03/07 09:53:33;;;;;;;5.80;3.95;;;6.10;99.90;;;;;;5048451;28;20386;-43
2023/03/07 09:56:02;;;;;;;5.18;4.18;;;6.10;99.90;;;;;;5049423;28;20194;-42
2023/03/07 09:58:28;;;;;;;7.53;3.78;;;6.00;99.90;;;;;;5049510;28;20181;-43
2023/03/07 10:00:56;;;;;;;8.43;5.45;;;5.90;99.90;;;;;;5049605;28;20167;-43
2023/03/07 10:03:40;;;;;;;5.50;4.25;;;6.00;99.90;;;;;;5049742;28;20182;-43
2023/03/07 10:06:41;;;;;;;5.75;3.95;;;6.00;99.90;;;;;;5049369;28;20206;-47
2023/03/07 10:09:13;;;;;;;6.57;4.90;;;5.90;99.90;;;;;;5029095;28;20206;-45
2023/03/07 10:11:54;;;;;;;7.57;4.97;;;5.90;99.90;;;;;;5038967;28;20271;-49
2023/03/07 10:14:56;;;;;;;5.25;4.40;;;6.00;99.90;;;;;;5049772;28;20174;-49
2023/03/07 10:17:48;;;;;;;6.22;4.70;;;5.90;99.90;;;;;;5049417;28;20573;-43
2023/03/07 10:20:33;;;;;;;7.75;4.72;;;6.00;99.90;;;;;;5048060;28;20666;-51
2023/03/07 10:23:17;;;;;;;7.18;5.20;;;6.00;99.90;;;;;;5049296;28;20172;-47
2023/03/07 10:25:55;;;;;;;4.65;3.35;;;5.90;99.90;;;;;;5049396;28;20170;-50
2023/03/07 10:28:22;;;;;;;5.38;3.67;;;5.70;99.90;;;;;;5049696;28;20634;-51
2023/03/07 10:30:51;;;;;;;7.95;4.97;;;5.60;99.90;;;;;;5049598;28;20202;-50
2023/03/07 10:33:18;;;;;;;6.13;4.80;;;5.70;99.90;;;;;;5049293;28;20538;-48
2023/03/07 10:35:53;;;;;;;7.88;5.07;;;5.70;99.90;;;;;;5049375;28;20244;-50
2023/03/07 10:38:33;;;;;;;4.85;3.42;;;5.70;99.90;;;;;;5049869;28;20202;-51
2023/03/07 10:41:07;;;;;;;7.50;4.53;;;5.70;99.90;;;;;;5052994;28;20178;-50
2023/03/07 10:43:33;;;;;;;4.03;2.80;;;5.70;99.90;;;;;;5053071;28;20186;-51
2023/03/07 10:46:13;;;;;;;7.53;3.63;;;5.80;99.90;;;;;;5052845;28;20175;-47
2023/03/07 10:48:43;;;;;;;8.80;3.97;;;5.80;99.90;;;;;;5051080;28;20578;-43
2023/03/07 10:51:34;;;;;;;5.13;4.50;;;5.80;99.90;;;;;;5053227;28;20591;-44
2023/03/07 10:54:01;;;;;;;7.18;4.88;;;5.60;99.90;;;;;;5052704;28;20571;-45
2023/03/07 10:56:26;;;;;;;10.93;6.63;;;5.80;99.90;;;;;;5052822;28;20175;-45
2023/03/07 10:59:06;;;;;;;11.10;6.78;;;5.70;99.90;;;;;;5053087;28;20232;-44
2023/03/07 11:01:32;;;;;;;5.13;4.15;;;5.60;99.90;;;;;;5052779;28;20170;-46
2023/03/07 11:04:06;;;;;;;9.73;5.32;;;5.60;99.90;;;;;;5052859;28;20174;-43
2023/03/07 11:06:50;;;;;;;11.40;6.72;;;5.60;99.90;;;;;;5052602;28;20296;-43
2023/03/07 11:09:44;;;;;;;7.55;5.07;;;5.60;99.90;;;;;;5052853;28;20171;-46
2023/03/07 11:12:17;;;;;;;4.93;3.78;;;5.40;99.90;;;;;;5052338;28;20304;-42
2023/03/07 11:15:07;;;;;;;5.45;3.70;;;5.30;99.90;;;;;;5052351;28;20188;-46
2023/03/07 11:17:44;;;;;;;5.05;3.45;;;5.10;99.90;;;;;;5052405;28;20162;-50
2023/03/07 11:20:46;;;;;;;6.72;4.13;;;5.00;99.90;;;;;;5052307;28;20178;-42
2023/03/07 11:23:26;;;;;;;5.03;3.85;;;5.00;99.90;;;;;;5052228;28;20246;-42
2023/03/07 11:25:54;;;;;;;5.00;3.85;;;5.00;99.90;;;;;;5051869;28;20181;-47
2023/03/07 11:28:22;;;;;;;5.88;4.65;;;5.10;99.90;;;;;;5052628;28;20167;-45
2023/03/07 11:30:58;;;;;;;4.65;3.55;;;5.00;99.90;;;;;;5052570;28;20194;-49
2023/03/07 11:33:35;;;;;;;5.03;3.60;;;5.10;99.90;;;;;;5051994;28;20178;-46
2023/03/07 11:36:07;;;;;;;5.28;3.60;;;5.00;99.90;;;;;;5052052;28;20194;-46
2023/03/07 11:38:42;;;;;;;4.35;3.33;;;5.00;99.90;;;;;;5051935;28;20236;-48
2023/03/07 11:41:15;;;;;;;4.60;3.83;;;5.20;99.90;;;;;;5051727;28;20586;-48
2023/03/07 11:44:02;;;;;;;4.22;3.20;;;5.10;99.90;;;;;;5051877;28;20277;-48
2023/03/07 11:46:49;;;;;;;4.90;4.18;;;5.10;99.90;;;;;;5051818;28;20155;-46
2023/03/07 11:49:38;;;;;;;12.18;5.10;;;5.10;99.90;;;;;;5050474;28;20166;-43
2023/03/07 11:52:41;;;;;;;23.33;10.07;;;5.10;99.90;;;;;;5051409;28;20210;-46
2023/03/07 11:55:25;;;;;;;15.90;7.32;;;5.10;99.90;;;;;;5051698;28;20300;-42
2023/03/07 11:58:09;;;;;;;11.70;6.65;;;5.00;99.90;;;;;;5052007;28;20170;-45
2023/03/07 12:01:05;;;;;;;2.53;2.30;;;5.00;99.90;;;;;;5051912;28;20177;-44
2023/03/07 12:03:39;;;;;;;3.15;2.60;;;4.90;99.90;;;;;;5050524;28;20185;-46
2023/03/07 12:06:13;;;;;;;2.97;2.60;;;4.90;99.90;;;;;;5051052;28;20213;-45
2023/03/07 12:08:48;;;;;;;4.07;2.70;;;5.00;99.90;;;;;;5051078;28;20646;-43
2023/03/07 12:11:19;;;;;;;2.78;2.35;;;5.10;99.90;;;;;;5051233;28;20213;-43
2023/03/07 12:13:57;;;;;;;3.22;1.67;;;5.00;99.90;;;;;;5050957;28;20221;-48
2023/03/07 12:16:37;;;;;;;13.30;6.20;;;4.70;99.90;;;;;;5050807;28;20170;-42
2023/03/07 12:19:24;;;;;;;12.45;6.15;;;4.80;99.90;;;;;;5051023;28;20164;-43
2023/03/07 12:22:11;;;;;;;11.00;6.25;;;4.60;99.90;;;;;;5051251;28;20163;-47
2023/03/07 12:24:45;;;;;;;10.13;6.32;;;4.60;99.90;;;;;;5051251;28;20175;-45
2023/03/07 12:27:18;;;;;;;2.17;1.98;;;4.50;99.90;;;;;;5050722;28;20177;-45
2023/03/07 12:29:53;;;;;;;2.22;1.80;;;4.60;99.90;;;;;;5049581;28;20171;-43
2023/03/07 12:32:26;;;;;;;2.13;1.92;;;4.60;99.90;;;;;;5050657;28;20236;-45
2023/03/07 12:34:54;;;;;;;1.50;1.40;;;4.70;99.90;;;;;;5050848;28;20178;-45
2023/03/07 12:37:32;;;;;;;1.60;1.45;;;4.60;99.90;;;;;;5050958;28;20214;-44
2023/03/07 12:40:12;;;;;;;1.90;1.55;;;4.60;99.90;;;;;;5050563;28;20642;-44
2023/03/07 12:42:46;;;;;;;1.52;1.20;;;4.50;99.90;;;;;;5049177;28;20308;-45
2023/03/07 12:45:23;;;;;;;1.35;1.25;;;4.50;99.90;;;;;;5047005;28;20512;-43
2023/03/07 12:48:07;;;;;;;1.70;1.60;;;4.60;99.90;;;;;;5051098;28;20181;-45
2023/03/07 12:51:01;;;;;;;1.00;1.00;;;4.70;99.90;;;;;;5050465;28;20220;-43
2023/03/07 12:53:45;;;;;;;3.00;2.13;;;4.50;99.90;;;;;;5050258;28;20170;-43
2023/03/07 12:56:25;;;;;;;3.25;2.65;;;4.60;99.90;;;;;;5050385;28;20249;-44
2023/03/07 12:59:10;;;;;;;4.28;3.47;;;4.60;99.90;;;;;;5050367;28;20260;-43
2023/03/07 13:01:45;;;;;;;5.30;3.55;;;4.60;99.90;;;;;;5049216;28;20182;-43
2023/03/07 13:04:35;;;;;;;5.38;3.60;;;4.60;99.90;;;;;;5050176;28;20173;-43
2023/03/07 13:07:09;;;;;;;4.88;3.92;;;4.60;99.90;;;;;;5049930;28;20222;-43
2023/03/07 13:09:39;;;;;;;6.07;5.38;;;4.60;99.90;;;;;;5050103;28;20702;-43